Airfield :
LOGIN :

Register | Disclaimer

   EN    FR    IT 

 










Legend :    VFR   Marginal VFR   IFR   Intensive IFR   Very Intensive IFR
Visi :
Ceiling :
>= 8 km
>= 3000ft
5 to 8 km
1000 to 3000 ft
1500m to 5 km
500 to 1000 ft
800 to 1500m
200 to 500 ft
< 800m
< 200 ft
Symbols :   Thunderstorms  Fog  Heavy snow  Heavy precipitations  Wind > 20 kt
SIGMETs :     Misc.  Thunderstorms  Icing  Turbulence  Mountain Waves  Volcanic Ashes







- Airport Elevation : 135 ft
- IATA code : EDI
- Download approach charts


EGPH - Edinburgh

CURRENT METAR :
  • 210920Z 25007KT 9999 SCT016 BKN022 18/15 Q1013

EXPIRED METARs :
  • 210850Z 25008KT 9999 FEW014 BKN020 18/15 Q1013
  • 210820Z 28005KT 230V310 9999 FEW013 BKN018 17/15 Q1013
  • 210750Z 25007KT 230V290 9999 BKN015 17/15 Q1013
  • 210720Z 26007KT 9999 SCT013 17/15 Q1013
  • 210650Z 26006KT 9999 BKN014 16/15 Q1013

TAF TAF EGPH
Valid from the 21 at 06:00 until the 22 at 06:00 UTC


210455Z 2106/2206 24005KT 9999 SCT025
TEMPO 2106/2109 BKN009
BECMG 2200/2203 BKN008
TEMPO 2200/2206 6000 -RA
ATIS : +44 131 339 2823
No reported NOTAMs for that airfield.



MET'MAP, your aeronautical weather chart ! - Copyright ORBIFLY December 2007 - Disclaimer

ORBIFLY MET'MAP TEAM :

Programming & Development : Alexandra Zaïnal
Concept & Development : Baudouin d'Aumeries
Co-Development & Prog : Marc-Olivier Méhu
Technical & hardware support : Manuel Goepfert

Contact : metmap@orbifly.com




SOURCES & CREDITS :

   NOAA